sensor_id;sensor_type;location;lat;lon;timestamp;P1;durP1;ratioP1;P2;durP2;ratioP2
15635;SDS011;7917;50.818;6.972;2024-03-23T00:55:13;37.20;;;17.48;;
15635;SDS011;7917;50.818;6.972;2024-03-23T00:57:39;31.88;;;15.27;;
15635;SDS011;7917;50.818;6.972;2024-03-23T01:00:06;35.58;;;16.10;;
15635;SDS011;7917;50.818;6.972;2024-03-23T01:02:35;33.67;;;14.73;;
15635;SDS011;7917;50.818;6.972;2024-03-23T01:05:01;31.92;;;15.25;;
15635;SDS011;7917;50.818;6.972;2024-03-23T01:07:28;30.83;;;14.20;;
15635;SDS011;7917;50.818;6.972;2024-03-23T01:09:55;30.25;;;12.73;;
15635;SDS011;7917;50.818;6.972;2024-03-23T01:12:22;33.90;;;13.65;;
15635;SDS011;7917;50.818;6.972;2024-03-23T01:14:48;33.80;;;14.50;;
15635;SDS011;7917;50.818;6.972;2024-03-23T01:17:14;32.92;;;15.48;;
15635;SDS011;7917;50.818;6.972;2024-03-23T01:19:41;30.65;;;13.80;;
15635;SDS011;7917;50.818;6.972;2024-03-23T01:22:07;25.25;;;11.95;;
15635;SDS011;7917;50.818;6.972;2024-03-23T01:24:35;34.80;;;11.63;;
15635;SDS011;7917;50.818;6.972;2024-03-23T01:27:03;27.80;;;12.02;;
15635;SDS011;7917;50.818;6.972;2024-03-23T01:29:29;24.92;;;12.75;;
15635;SDS011;7917;50.818;6.972;2024-03-23T01:31:55;34.70;;;14.15;;
15635;SDS011;7917;50.818;6.972;2024-03-23T01:34:21;34.83;;;13.85;;
15635;SDS011;7917;50.818;6.972;2024-03-23T01:36:49;33.28;;;15.18;;
15635;SDS011;7917;50.818;6.972;2024-03-23T01:39:15;40.00;;;15.48;;
15635;SDS011;7917;50.818;6.972;2024-03-23T01:41:42;33.30;;;15.27;;
15635;SDS011;7917;50.818;6.972;2024-03-23T01:44:10;35.33;;;14.82;;
15635;SDS011;7917;50.818;6.972;2024-03-23T01:46:36;15.93;;;7.70;;
15635;SDS011;7917;50.818;6.972;2024-03-23T01:49:03;10.90;;;5.40;;
15635;SDS011;7917;50.818;6.972;2024-03-23T01:51:31;11.32;;;5.50;;
15635;SDS011;7917;50.818;6.972;2024-03-23T01:53:59;8.60;;;5.13;;
15635;SDS011;7917;50.818;6.972;2024-03-23T01:56:29;12.68;;;5.68;;
15635;SDS011;7917;50.818;6.972;2024-03-23T01:58:58;10.13;;;6.22;;
15635;SDS011;7917;50.818;6.972;2024-03-23T02:01:24;12.82;;;6.32;;
15635;SDS011;7917;50.818;6.972;2024-03-23T02:03:51;15.70;;;7.80;;
15635;SDS011;7917;50.818;6.972;2024-03-23T02:06:17;17.38;;;8.18;;
15635;SDS011;7917;50.818;6.972;2024-03-23T02:08:45;18.85;;;9.40;;
15635;SDS011;7917;50.818;6.972;2024-03-23T02:11:12;17.02;;;10.30;;
15635;SDS011;7917;50.818;6.972;2024-03-23T02:13:38;21.65;;;11.25;;
15635;SDS011;7917;50.818;6.972;2024-03-23T02:16:04;23.55;;;11.90;;
15635;SDS011;7917;50.818;6.972;2024-03-23T02:18:33;20.30;;;11.18;;
15635;SDS011;7917;50.818;6.972;2024-03-23T02:20:59;24.90;;;12.30;;
15635;SDS011;7917;50.818;6.972;2024-03-23T02:23:26;27.08;;;12.65;;
15635;SDS011;7917;50.818;6.972;2024-03-23T02:25:54;29.77;;;14.38;;
15635;SDS011;7917;50.818;6.972;2024-03-23T02:28:20;22.10;;;13.60;;
15635;SDS011;7917;50.818;6.972;2024-03-23T02:30:47;27.05;;;13.38;;
15635;SDS011;7917;50.818;6.972;2024-03-23T02:33:14;28.17;;;13.85;;
15635;SDS011;7917;50.818;6.972;2024-03-23T02:35:40;26.60;;;14.60;;
15635;SDS011;7917;50.818;6.972;2024-03-23T02:38:06;26.50;;;12.45;;
15635;SDS011;7917;50.818;6.972;2024-03-23T02:40:36;31.38;;;12.85;;
15635;SDS011;7917;50.818;6.972;2024-03-23T02:43:02;26.45;;;11.85;;
15635;SDS011;7917;50.818;6.972;2024-03-23T02:45:30;23.95;;;11.20;;
15635;SDS011;7917;50.818;6.972;2024-03-23T02:47:56;16.08;;;6.10;;
15635;SDS011;7917;50.818;6.972;2024-03-23T02:50:26;12.90;;;5.00;;
15635;SDS011;7917;50.818;6.972;2024-03-23T02:52:52;6.50;;;2.53;;
15635;SDS011;7917;50.818;6.972;2024-03-23T02:55:18;9.52;;;2.38;;
15635;SDS011;7917;50.818;6.972;2024-03-23T02:57:45;7.13;;;2.28;;
15635;SDS011;7917;50.818;6.972;2024-03-23T03:00:12;7.07;;;2.28;;
15635;SDS011;7917;50.818;6.972;2024-03-23T03:02:40;6.25;;;2.10;;
15635;SDS011;7917;50.818;6.972;2024-03-23T03:05:07;7.47;;;1.98;;
15635;SDS011;7917;50.818;6.972;2024-03-23T03:07:34;11.27;;;2.10;;
15635;SDS011;7917;50.818;6.972;2024-03-23T03:10:01;13.02;;;2.60;;
15635;SDS011;7917;50.818;6.972;2024-03-23T03:12:28;8.88;;;2.70;;
15635;SDS011;7917;50.818;6.972;2024-03-23T03:14:55;8.50;;;3.25;;
15635;SDS011;7917;50.818;6.972;2024-03-23T03:17:22;10.88;;;3.60;;
15635;SDS011;7917;50.818;6.972;2024-03-23T03:19:52;11.45;;;3.42;;
15635;SDS011;7917;50.818;6.972;2024-03-23T03:22:20;8.80;;;3.30;;
15635;SDS011;7917;50.818;6.972;2024-03-23T03:24:47;11.45;;;3.05;;
15635;SDS011;7917;50.818;6.972;2024-03-23T03:27:14;11.15;;;3.20;;
15635;SDS011;7917;50.818;6.972;2024-03-23T03:29:40;11.68;;;3.22;;
15635;SDS011;7917;50.818;6.972;2024-03-23T03:32:07;8.77;;;3.25;;
15635;SDS011;7917;50.818;6.972;2024-03-23T03:34:33;10.38;;;4.15;;
15635;SDS011;7917;50.818;6.972;2024-03-23T03:37:00;8.55;;;3.40;;
15635;SDS011;7917;50.818;6.972;2024-03-23T03:39:26;12.25;;;2.88;;
15635;SDS011;7917;50.818;6.972;2024-03-23T03:41:52;7.30;;;3.28;;
15635;SDS011;7917;50.818;6.972;2024-03-23T03:44:21;8.38;;;3.22;;
15635;SDS011;7917;50.818;6.972;2024-03-23T03:46:47;9.95;;;2.50;;
15635;SDS011;7917;50.818;6.972;2024-03-23T03:49:14;11.32;;;2.63;;
15635;SDS011;7917;50.818;6.972;2024-03-23T03:51:40;11.38;;;2.90;;
15635;SDS011;7917;50.818;6.972;2024-03-23T03:54:07;8.90;;;2.72;;
15635;SDS011;7917;50.818;6.972;2024-03-23T03:56:33;10.90;;;2.88;;
15635;SDS011;7917;50.818;6.972;2024-03-23T03:58:59;11.02;;;2.83;;
15635;SDS011;7917;50.818;6.972;2024-03-23T04:04:48;7.80;;;2.60;;
15635;SDS011;7917;50.818;6.972;2024-03-23T04:07:15;9.40;;;2.67;;
15635;SDS011;7917;50.818;6.972;2024-03-23T04:09:43;6.28;;;2.33;;
15635;SDS011;7917;50.818;6.972;2024-03-23T04:12:10;11.15;;;3.17;;
15635;SDS011;7917;50.818;6.972;2024-03-23T04:14:36;10.00;;;2.90;;
15635;SDS011;7917;50.818;6.972;2024-03-23T04:17:02;7.60;;;4.03;;
15635;SDS011;7917;50.818;6.972;2024-03-23T04:19:29;13.60;;;3.10;;
15635;SDS011;7917;50.818;6.972;2024-03-23T04:21:57;9.25;;;2.85;;
15635;SDS011;7917;50.818;6.972;2024-03-23T04:24:23;10.63;;;2.80;;
15635;SDS011;7917;50.818;6.972;2024-03-23T04:26:51;12.52;;;3.20;;
15635;SDS011;7917;50.818;6.972;2024-03-23T04:29:18;21.33;;;3.72;;
15635;SDS011;7917;50.818;6.972;2024-03-23T04:31:45;9.15;;;2.13;;
15635;SDS011;7917;50.818;6.972;2024-03-23T04:34:11;10.68;;;2.78;;
15635;SDS011;7917;50.818;6.972;2024-03-23T04:36:37;10.63;;;2.53;;
15635;SDS011;7917;50.818;6.972;2024-03-23T04:39:04;16.27;;;4.57;;
15635;SDS011;7917;50.818;6.972;2024-03-23T04:41:34;14.20;;;3.97;;
15635;SDS011;7917;50.818;6.972;2024-03-23T04:44:03;10.90;;;3.65;;
15635;SDS011;7917;50.818;6.972;2024-03-23T04:46:30;11.55;;;4.90;;
15635;SDS011;7917;50.818;6.972;2024-03-23T04:48:56;11.98;;;3.05;;
15635;SDS011;7917;50.818;6.972;2024-03-23T04:51:22;14.40;;;3.10;;
15635;SDS011;7917;50.818;6.972;2024-03-23T04:53:50;12.55;;;3.17;;
15635;SDS011;7917;50.818;6.972;2024-03-23T04:56:17;13.25;;;3.33;;
15635;SDS011;7917;50.818;6.972;2024-03-23T04:58:44;11.15;;;2.70;;
15635;SDS011;7917;50.818;6.972;2024-03-23T05:01:11;11.90;;;2.72;;
15635;SDS011;7917;50.818;6.972;2024-03-23T05:04:35;11.30;;;3.00;;
15635;SDS011;7917;50.818;6.972;2024-03-23T05:07:03;14.70;;;3.63;;
15635;SDS011;7917;50.818;6.972;2024-03-23T05:09:29;10.52;;;3.00;;
15635;SDS011;7917;50.818;6.972;2024-03-23T05:14:54;11.85;;;2.92;;
15635;SDS011;7917;50.818;6.972;2024-03-23T05:17:20;12.45;;;2.72;;
15635;SDS011;7917;50.818;6.972;2024-03-23T05:19:47;13.63;;;2.85;;
15635;SDS011;7917;50.818;6.972;2024-03-23T05:22:13;12.73;;;2.50;;
15635;SDS011;7917;50.818;6.972;2024-03-23T05:24:39;11.55;;;3.58;;
15635;SDS011;7917;50.818;6.972;2024-03-23T05:27:06;9.77;;;2.65;;
15635;SDS011;7917;50.818;6.972;2024-03-23T05:29:33;10.75;;;3.08;;
15635;SDS011;7917;50.818;6.972;2024-03-23T05:32:00;13.13;;;4.03;;
15635;SDS011;7917;50.818;6.972;2024-03-23T05:34:28;11.93;;;2.92;;
15635;SDS011;7917;50.818;6.972;2024-03-23T05:36:54;8.48;;;2.85;;
15635;SDS011;7917;50.818;6.972;2024-03-23T05:39:20;10.35;;;2.40;;
15635;SDS011;7917;50.818;6.972;2024-03-23T05:41:47;18.70;;;2.88;;
15635;SDS011;7917;50.818;6.972;2024-03-23T05:44:13;6.28;;;2.47;;
15635;SDS011;7917;50.818;6.972;2024-03-23T05:46:48;6.95;;;2.25;;
15635;SDS011;7917;50.818;6.972;2024-03-23T05:49:14;14.35;;;3.38;;
15635;SDS011;7917;50.818;6.972;2024-03-23T05:51:43;12.10;;;3.38;;
15635;SDS011;7917;50.818;6.972;2024-03-23T05:54:10;12.63;;;2.80;;
15635;SDS011;7917;50.818;6.972;2024-03-23T05:56:38;11.95;;;3.35;;
15635;SDS011;7917;50.818;6.972;2024-03-23T05:59:04;10.80;;;2.70;;
15635;SDS011;7917;50.818;6.972;2024-03-23T06:01:30;11.25;;;2.95;;
15635;SDS011;7917;50.818;6.972;2024-03-23T06:03:58;18.30;;;3.40;;
15635;SDS011;7917;50.818;6.972;2024-03-23T06:06:28;12.98;;;3.28;;
15635;SDS011;7917;50.818;6.972;2024-03-23T06:08:55;8.00;;;2.92;;
15635;SDS011;7917;50.818;6.972;2024-03-23T06:11:21;15.48;;;5.13;;
15635;SDS011;7917;50.818;6.972;2024-03-23T06:13:47;11.20;;;3.53;;
15635;SDS011;7917;50.818;6.972;2024-03-23T06:16:14;11.32;;;2.95;;
15635;SDS011;7917;50.818;6.972;2024-03-23T06:18:40;7.80;;;3.10;;
15635;SDS011;7917;50.818;6.972;2024-03-23T06:21:13;13.63;;;3.20;;
15635;SDS011;7917;50.818;6.972;2024-03-23T06:23:40;11.43;;;2.95;;
15635;SDS011;7917;50.818;6.972;2024-03-23T06:26:07;11.45;;;3.15;;
15635;SDS011;7917;50.818;6.972;2024-03-23T06:28:35;11.27;;;3.20;;
15635;SDS011;7917;50.818;6.972;2024-03-23T06:31:02;10.80;;;3.05;;
15635;SDS011;7917;50.818;6.972;2024-03-23T06:33:28;13.93;;;3.47;;
15635;SDS011;7917;50.818;6.972;2024-03-23T06:35:55;13.68;;;3.40;;
15635;SDS011;7917;50.818;6.972;2024-03-23T06:38:24;12.65;;;3.22;;
15635;SDS011;7917;50.818;6.972;2024-03-23T06:40:51;15.15;;;4.20;;
15635;SDS011;7917;50.818;6.972;2024-03-23T06:43:17;10.98;;;3.60;;
15635;SDS011;7917;50.818;6.972;2024-03-23T06:45:44;8.20;;;3.47;;
15635;SDS011;7917;50.818;6.972;2024-03-23T06:48:18;14.27;;;4.03;;
15635;SDS011;7917;50.818;6.972;2024-03-23T06:50:44;13.93;;;3.65;;
15635;SDS011;7917;50.818;6.972;2024-03-23T06:53:11;13.60;;;3.70;;
15635;SDS011;7917;50.818;6.972;2024-03-23T06:55:38;10.48;;;3.33;;
15635;SDS011;7917;50.818;6.972;2024-03-23T06:58:05;10.77;;;3.60;;
15635;SDS011;7917;50.818;6.972;2024-03-23T07:00:32;12.88;;;3.55;;
15635;SDS011;7917;50.818;6.972;2024-03-23T07:02:58;12.77;;;4.13;;
15635;SDS011;7917;50.818;6.972;2024-03-23T07:05:25;15.00;;;3.60;;
15635;SDS011;7917;50.818;6.972;2024-03-23T07:07:51;13.25;;;3.80;;
15635;SDS011;7917;50.818;6.972;2024-03-23T07:10:17;21.33;;;4.90;;
15635;SDS011;7917;50.818;6.972;2024-03-23T07:12:44;14.45;;;5.20;;
15635;SDS011;7917;50.818;6.972;2024-03-23T07:15:10;16.45;;;4.30;;
15635;SDS011;7917;50.818;6.972;2024-03-23T07:17:38;7.20;;;3.40;;
15635;SDS011;7917;50.818;6.972;2024-03-23T07:20:04;13.55;;;4.35;;
15635;SDS011;7917;50.818;6.972;2024-03-23T07:22:36;10.18;;;4.30;;
15635;SDS011;7917;50.818;6.972;2024-03-23T07:25:04;14.80;;;4.60;;
15635;SDS011;7917;50.818;6.972;2024-03-23T07:27:31;8.00;;;4.47;;
15635;SDS011;7917;50.818;6.972;2024-03-23T07:29:59;13.32;;;4.88;;
15635;SDS011;7917;50.818;6.972;2024-03-23T07:32:26;14.57;;;6.00;;
15635;SDS011;7917;50.818;6.972;2024-03-23T07:34:53;10.73;;;4.97;;
15635;SDS011;7917;50.818;6.972;2024-03-23T07:37:19;15.30;;;5.50;;
15635;SDS011;7917;50.818;6.972;2024-03-23T07:39:46;13.98;;;6.10;;
15635;SDS011;7917;50.818;6.972;2024-03-23T07:42:12;11.75;;;5.35;;
15635;SDS011;7917;50.818;6.972;2024-03-23T07:44:39;17.13;;;6.97;;
15635;SDS011;7917;50.818;6.972;2024-03-23T07:47:06;17.45;;;7.05;;
15635;SDS011;7917;50.818;6.972;2024-03-23T07:49:33;17.67;;;7.15;;
15635;SDS011;7917;50.818;6.972;2024-03-23T07:52:00;20.30;;;6.47;;
15635;SDS011;7917;50.818;6.972;2024-03-23T07:54:26;20.23;;;6.82;;
15635;SDS011;7917;50.818;6.972;2024-03-23T07:56:54;19.83;;;7.22;;
15635;SDS011;7917;50.818;6.972;2024-03-23T07:59:23;20.13;;;7.97;;
15635;SDS011;7917;50.818;6.972;2024-03-23T08:01:50;14.52;;;6.80;;
15635;SDS011;7917;50.818;6.972;2024-03-23T08:04:18;13.27;;;5.95;;
15635;SDS011;7917;50.818;6.972;2024-03-23T08:06:44;13.20;;;5.35;;
15635;SDS011;7917;50.818;6.972;2024-03-23T08:09:11;14.90;;;5.82;;
15635;SDS011;7917;50.818;6.972;2024-03-23T08:11:38;5.82;;;3.17;;
15635;SDS011;7917;50.818;6.972;2024-03-23T08:14:04;7.18;;;2.55;;
15635;SDS011;7917;50.818;6.972;2024-03-23T08:16:31;6.68;;;2.50;;
15635;SDS011;7917;50.818;6.972;2024-03-23T08:19:00;5.22;;;2.10;;
15635;SDS011;7917;50.818;6.972;2024-03-23T08:21:28;5.85;;;2.72;;
15635;SDS011;7917;50.818;6.972;2024-03-23T08:23:55;11.70;;;2.95;;
15635;SDS011;7917;50.818;6.972;2024-03-23T08:26:21;7.97;;;2.72;;
15635;SDS011;7917;50.818;6.972;2024-03-23T08:28:47;4.88;;;2.10;;
15635;SDS011;7917;50.818;6.972;2024-03-23T08:31:16;8.20;;;3.08;;
15635;SDS011;7917;50.818;6.972;2024-03-23T08:33:43;6.55;;;2.45;;
15635;SDS011;7917;50.818;6.972;2024-03-23T08:36:10;10.73;;;2.80;;
15635;SDS011;7917;50.818;6.972;2024-03-23T08:38:38;7.45;;;3.22;;
15635;SDS011;7917;50.818;6.972;2024-03-23T08:41:10;8.50;;;2.97;;
15635;SDS011;7917;50.818;6.972;2024-03-23T08:43:38;6.90;;;3.38;;
15635;SDS011;7917;50.818;6.972;2024-03-23T08:46:06;7.18;;;3.90;;
15635;SDS011;7917;50.818;6.972;2024-03-23T08:48:34;13.50;;;4.97;;
15635;SDS011;7917;50.818;6.972;2024-03-23T08:51:01;13.07;;;5.55;;
15635;SDS011;7917;50.818;6.972;2024-03-23T08:53:28;15.85;;;5.57;;
15635;SDS011;7917;50.818;6.972;2024-03-23T08:55:55;10.25;;;5.60;;
15635;SDS011;7917;50.818;6.972;2024-03-23T08:58:23;12.88;;;6.68;;
15635;SDS011;7917;50.818;6.972;2024-03-23T09:00:50;16.38;;;7.22;;
15635;SDS011;7917;50.818;6.972;2024-03-23T09:03:17;16.20;;;7.85;;
15635;SDS011;7917;50.818;6.972;2024-03-23T09:05:44;14.65;;;7.15;;
15635;SDS011;7917;50.818;6.972;2024-03-23T09:08:13;16.75;;;7.97;;
15635;SDS011;7917;50.818;6.972;2024-03-23T09:10:40;17.38;;;8.25;;
15635;SDS011;7917;50.818;6.972;2024-03-23T09:13:08;12.38;;;7.10;;
15635;SDS011;7917;50.818;6.972;2024-03-23T09:15:35;13.25;;;6.85;;
15635;SDS011;7917;50.818;6.972;2024-03-23T09:18:02;13.55;;;7.65;;
15635;SDS011;7917;50.818;6.972;2024-03-23T09:20:29;16.90;;;7.38;;
15635;SDS011;7917;50.818;6.972;2024-03-23T09:22:58;12.70;;;6.80;;
15635;SDS011;7917;50.818;6.972;2024-03-23T09:25:24;17.75;;;5.78;;
15635;SDS011;7917;50.818;6.972;2024-03-23T09:27:51;13.68;;;4.82;;
15635;SDS011;7917;50.818;6.972;2024-03-23T09:30:18;11.85;;;4.50;;
15635;SDS011;7917;50.818;6.972;2024-03-23T09:32:46;11.65;;;4.45;;
15635;SDS011;7917;50.818;6.972;2024-03-23T09:35:12;15.48;;;4.68;;
15635;SDS011;7917;50.818;6.972;2024-03-23T09:37:39;9.77;;;4.13;;
15635;SDS011;7917;50.818;6.972;2024-03-23T09:40:06;10.57;;;4.03;;
15635;SDS011;7917;50.818;6.972;2024-03-23T09:42:37;9.02;;;3.10;;
15635;SDS011;7917;50.818;6.972;2024-03-23T09:45:05;8.40;;;3.65;;
15635;SDS011;7917;50.818;6.972;2024-03-23T09:47:40;12.80;;;3.63;;
15635;SDS011;7917;50.818;6.972;2024-03-23T09:50:07;8.20;;;3.42;;
15635;SDS011;7917;50.818;6.972;2024-03-23T09:52:35;9.88;;;3.15;;
15635;SDS011;7917;50.818;6.972;2024-03-23T09:55:02;7.97;;;3.05;;
15635;SDS011;7917;50.818;6.972;2024-03-23T09:57:30;9.48;;;3.60;;
15635;SDS011;7917;50.818;6.972;2024-03-23T09:59:56;8.77;;;2.67;;
15635;SDS011;7917;50.818;6.972;2024-03-23T10:02:25;12.27;;;3.60;;
15635;SDS011;7917;50.818;6.972;2024-03-23T10:04:52;12.85;;;2.80;;
15635;SDS011;7917;50.818;6.972;2024-03-23T10:07:20;6.47;;;3.28;;
15635;SDS011;7917;50.818;6.972;2024-03-23T10:09:48;7.75;;;2.65;;
15635;SDS011;7917;50.818;6.972;2024-03-23T10:12:17;8.02;;;2.17;;
15635;SDS011;7917;50.818;6.972;2024-03-23T10:14:44;6.05;;;2.35;;
15635;SDS011;7917;50.818;6.972;2024-03-23T10:17:13;10.43;;;2.63;;
15635;SDS011;7917;50.818;6.972;2024-03-23T10:19:44;9.65;;;2.45;;
15635;SDS011;7917;50.818;6.972;2024-03-23T10:22:13;7.20;;;2.47;;
15635;SDS011;7917;50.818;6.972;2024-03-23T10:24:40;6.70;;;2.40;;
15635;SDS011;7917;50.818;6.972;2024-03-23T10:27:08;9.43;;;2.42;;
15635;SDS011;7917;50.818;6.972;2024-03-23T10:29:36;3.25;;;1.98;;
15635;SDS011;7917;50.818;6.972;2024-03-23T10:32:09;2.60;;;1.60;;
15635;SDS011;7917;50.818;6.972;2024-03-23T10:34:38;5.10;;;2.08;;
15635;SDS011;7917;50.818;6.972;2024-03-23T10:37:06;4.18;;;1.55;;
15635;SDS011;7917;50.818;6.972;2024-03-23T10:39:36;2.90;;;1.30;;
15635;SDS011;7917;50.818;6.972;2024-03-23T10:42:06;4.68;;;2.15;;
15635;SDS011;7917;50.818;6.972;2024-03-23T10:44:35;6.45;;;1.85;;
15635;SDS011;7917;50.818;6.972;2024-03-23T10:47:05;4.22;;;2.03;;
15635;SDS011;7917;50.818;6.972;2024-03-23T10:49:33;2.88;;;1.58;;
15635;SDS011;7917;50.818;6.972;2024-03-23T10:52:04;4.38;;;1.30;;
15635;SDS011;7917;50.818;6.972;2024-03-23T10:54:32;6.75;;;1.92;;
15635;SDS011;7917;50.818;6.972;2024-03-23T10:57:01;4.75;;;1.10;;
15635;SDS011;7917;50.818;6.972;2024-03-23T10:59:37;3.20;;;1.40;;
15635;SDS011;7917;50.818;6.972;2024-03-23T11:02:05;4.90;;;1.48;;
15635;SDS011;7917;50.818;6.972;2024-03-23T11:04:44;3.88;;;1.50;;
15635;SDS011;7917;50.818;6.972;2024-03-23T11:07:28;7.35;;;1.65;;
15635;SDS011;7917;50.818;6.972;2024-03-23T11:09:56;5.78;;;1.42;;
15635;SDS011;7917;50.818;6.972;2024-03-23T11:12:27;7.95;;;2.20;;
15635;SDS011;7917;50.818;6.972;2024-03-23T11:15:02;7.07;;;2.33;;
15635;SDS011;7917;50.818;6.972;2024-03-23T11:17:32;3.22;;;1.60;;
15635;SDS011;7917;50.818;6.972;2024-03-23T11:19:59;7.07;;;1.98;;
15635;SDS011;7917;50.818;6.972;2024-03-23T11:25:18;7.50;;;3.22;;
15635;SDS011;7917;50.818;6.972;2024-03-23T11:27:47;5.93;;;2.60;;
15635;SDS011;7917;50.818;6.972;2024-03-23T11:30:15;7.55;;;3.42;;
15635;SDS011;7917;50.818;6.972;2024-03-23T11:32:49;7.45;;;3.67;;
15635;SDS011;7917;50.818;6.972;2024-03-23T11:35:26;4.55;;;3.10;;
15635;SDS011;7917;50.818;6.972;2024-03-23T11:38:03;9.70;;;4.00;;
15635;SDS011;7917;50.818;6.972;2024-03-23T11:40:31;5.80;;;2.83;;
15635;SDS011;7917;50.818;6.972;2024-03-23T11:43:02;8.50;;;2.90;;
15635;SDS011;7917;50.818;6.972;2024-03-23T11:45:33;5.97;;;3.17;;
15635;SDS011;7917;50.818;6.972;2024-03-23T11:48:05;5.65;;;3.05;;
15635;SDS011;7917;50.818;6.972;2024-03-23T11:50:32;9.75;;;3.40;;
15635;SDS011;7917;50.818;6.972;2024-03-23T11:53:13;8.43;;;3.85;;
15635;SDS011;7917;50.818;6.972;2024-03-23T11:55:42;11.05;;;3.65;;
15635;SDS011;7917;50.818;6.972;2024-03-23T11:58:20;7.20;;;2.88;;
15635;SDS011;7917;50.818;6.972;2024-03-23T12:00:52;8.20;;;2.38;;
15635;SDS011;7917;50.818;6.972;2024-03-23T12:03:35;8.00;;;2.45;;
15635;SDS011;7917;50.818;6.972;2024-03-23T12:06:04;6.15;;;2.55;;
15635;SDS011;7917;50.818;6.972;2024-03-23T12:08:32;7.43;;;2.70;;
15635;SDS011;7917;50.818;6.972;2024-03-23T12:11:06;9.23;;;2.95;;
15635;SDS011;7917;50.818;6.972;2024-03-23T12:13:35;7.32;;;3.03;;
15635;SDS011;7917;50.818;6.972;2024-03-23T12:16:10;8.18;;;2.67;;
15635;SDS011;7917;50.818;6.972;2024-03-23T12:18:38;4.93;;;2.13;;
15635;SDS011;7917;50.818;6.972;2024-03-23T12:21:06;5.15;;;2.40;;
15635;SDS011;7917;50.818;6.972;2024-03-23T12:23:33;8.32;;;2.38;;
15635;SDS011;7917;50.818;6.972;2024-03-23T12:25:59;6.38;;;2.03;;
15635;SDS011;7917;50.818;6.972;2024-03-23T12:28:27;6.95;;;2.58;;
15635;SDS011;7917;50.818;6.972;2024-03-23T12:30:55;4.55;;;1.80;;
15635;SDS011;7917;50.818;6.972;2024-03-23T12:33:21;4.13;;;2.08;;
15635;SDS011;7917;50.818;6.972;2024-03-23T12:35:48;4.38;;;2.10;;
15635;SDS011;7917;50.818;6.972;2024-03-23T12:38:14;7.53;;;2.05;;
15635;SDS011;7917;50.818;6.972;2024-03-23T12:40:41;2.78;;;1.25;;
15635;SDS011;7917;50.818;6.972;2024-03-23T12:43:07;1.88;;;0.95;;
15635;SDS011;7917;50.818;6.972;2024-03-23T12:45:34;4.25;;;1.13;;
15635;SDS011;7917;50.818;6.972;2024-03-23T12:48:03;2.15;;;1.60;;
15635;SDS011;7917;50.818;6.972;2024-03-23T12:50:30;4.35;;;1.40;;
15635;SDS011;7917;50.818;6.972;2024-03-23T12:52:57;2.10;;;1.05;;
15635;SDS011;7917;50.818;6.972;2024-03-23T12:55:23;3.13;;;1.10;;
15635;SDS011;7917;50.818;6.972;2024-03-23T12:57:51;2.88;;;1.00;;
15635;SDS011;7917;50.818;6.972;2024-03-23T13:00:17;2.53;;;1.20;;
15635;SDS011;7917;50.818;6.972;2024-03-23T13:02:45;4.85;;;1.27;;
15635;SDS011;7917;50.818;6.972;2024-03-23T13:05:14;3.90;;;1.38;;
15635;SDS011;7917;50.818;6.972;2024-03-23T13:07:42;2.75;;;1.63;;
15635;SDS011;7917;50.818;6.972;2024-03-23T13:10:09;1.95;;;1.17;;
15635;SDS011;7917;50.818;6.972;2024-03-23T13:12:36;3.63;;;1.58;;
15635;SDS011;7917;50.818;6.972;2024-03-23T13:15:02;1.88;;;1.00;;
15635;SDS011;7917;50.818;6.972;2024-03-23T13:17:29;1.45;;;1.10;;
15635;SDS011;7917;50.818;6.972;2024-03-23T13:19:57;3.10;;;1.20;;
15635;SDS011;7917;50.818;6.972;2024-03-23T13:22:24;2.40;;;1.70;;
15635;SDS011;7917;50.818;6.972;2024-03-23T13:24:50;4.28;;;1.33;;
15635;SDS011;7917;50.818;6.972;2024-03-23T13:27:18;2.67;;;1.70;;
15635;SDS011;7917;50.818;6.972;2024-03-23T13:29:45;3.22;;;1.73;;
15635;SDS011;7917;50.818;6.972;2024-03-23T13:32:12;3.08;;;1.77;;
15635;SDS011;7917;50.818;6.972;2024-03-23T13:34:39;3.55;;;1.60;;
15635;SDS011;7917;50.818;6.972;2024-03-23T13:37:05;3.28;;;1.70;;
15635;SDS011;7917;50.818;6.972;2024-03-23T13:39:34;3.75;;;1.70;;
15635;SDS011;7917;50.818;6.972;2024-03-23T13:42:00;3.88;;;2.22;;
15635;SDS011;7917;50.818;6.972;2024-03-23T13:44:27;3.17;;;2.03;;
15635;SDS011;7917;50.818;6.972;2024-03-23T13:46:54;3.45;;;1.70;;
15635;SDS011;7917;50.818;6.972;2024-03-23T13:49:24;3.33;;;2.30;;
15635;SDS011;7917;50.818;6.972;2024-03-23T13:51:54;4.70;;;2.33;;
15635;SDS011;7917;50.818;6.972;2024-03-23T13:54:21;5.68;;;2.85;;
15635;SDS011;7917;50.818;6.972;2024-03-23T13:56:50;4.50;;;2.03;;
15635;SDS011;7917;50.818;6.972;2024-03-23T13:59:16;5.63;;;2.10;;
15635;SDS011;7917;50.818;6.972;2024-03-23T14:01:43;3.80;;;1.98;;
15635;SDS011;7917;50.818;6.972;2024-03-23T14:04:11;5.28;;;2.20;;
15635;SDS011;7917;50.818;6.972;2024-03-23T14:06:37;5.50;;;2.15;;
15635;SDS011;7917;50.818;6.972;2024-03-23T14:09:04;4.70;;;2.33;;
15635;SDS011;7917;50.818;6.972;2024-03-23T14:11:34;4.32;;;2.20;;
15635;SDS011;7917;50.818;6.972;2024-03-23T14:14:02;3.38;;;2.17;;
15635;SDS011;7917;50.818;6.972;2024-03-23T14:16:29;4.43;;;1.80;;
15635;SDS011;7917;50.818;6.972;2024-03-23T14:18:55;7.22;;;2.20;;
15635;SDS011;7917;50.818;6.972;2024-03-23T14:21:28;3.17;;;1.13;;
15635;SDS011;7917;50.818;6.972;2024-03-23T14:23:59;5.40;;;1.42;;
15635;SDS011;7917;50.818;6.972;2024-03-23T14:26:28;1.70;;;1.30;;
15635;SDS011;7917;50.818;6.972;2024-03-23T14:28:54;1.88;;;1.20;;
15635;SDS011;7917;50.818;6.972;2024-03-23T14:31:24;2.65;;;1.50;;
15635;SDS011;7917;50.818;6.972;2024-03-23T14:33:51;4.78;;;1.52;;
15635;SDS011;7917;50.818;6.972;2024-03-23T14:36:19;2.72;;;1.38;;
15635;SDS011;7917;50.818;6.972;2024-03-23T14:38:48;2.33;;;1.70;;
15635;SDS011;7917;50.818;6.972;2024-03-23T14:41:26;4.55;;;1.50;;
15635;SDS011;7917;50.818;6.972;2024-03-23T14:43:54;5.22;;;1.92;;
15635;SDS011;7917;50.818;6.972;2024-03-23T14:46:22;1.92;;;1.48;;
15635;SDS011;7917;50.818;6.972;2024-03-23T14:48:50;7.22;;;1.98;;
15635;SDS011;7917;50.818;6.972;2024-03-23T14:51:17;3.78;;;1.80;;
15635;SDS011;7917;50.818;6.972;2024-03-23T14:53:45;4.28;;;2.03;;
15635;SDS011;7917;50.818;6.972;2024-03-23T14:56:15;2.20;;;1.40;;
15635;SDS011;7917;50.818;6.972;2024-03-23T14:58:43;2.13;;;1.48;;
15635;SDS011;7917;50.818;6.972;2024-03-23T15:01:12;2.58;;;1.52;;
15635;SDS011;7917;50.818;6.972;2024-03-23T15:03:47;3.90;;;1.90;;
15635;SDS011;7917;50.818;6.972;2024-03-23T15:06:16;4.20;;;1.65;;
15635;SDS011;7917;50.818;6.972;2024-03-23T15:08:43;3.67;;;1.88;;
15635;SDS011;7917;50.818;6.972;2024-03-23T15:11:10;6.22;;;1.90;;
15635;SDS011;7917;50.818;6.972;2024-03-23T15:13:36;3.85;;;1.55;;
15635;SDS011;7917;50.818;6.972;2024-03-23T15:16:05;6.05;;;2.97;;
15635;SDS011;7917;50.818;6.972;2024-03-23T15:18:32;3.25;;;1.80;;
15635;SDS011;7917;50.818;6.972;2024-03-23T15:21:04;4.82;;;2.63;;
15635;SDS011;7917;50.818;6.972;2024-03-23T15:23:35;7.07;;;2.47;;
15635;SDS011;7917;50.818;6.972;2024-03-23T15:26:03;5.03;;;1.80;;
15635;SDS011;7917;50.818;6.972;2024-03-23T15:28:31;3.78;;;2.30;;
15635;SDS011;7917;50.818;6.972;2024-03-23T15:31:04;6.10;;;2.22;;
15635;SDS011;7917;50.818;6.972;2024-03-23T15:33:30;3.17;;;1.70;;
15635;SDS011;7917;50.818;6.972;2024-03-23T15:35:58;3.47;;;1.25;;
15635;SDS011;7917;50.818;6.972;2024-03-23T15:38:24;5.38;;;1.80;;
15635;SDS011;7917;50.818;6.972;2024-03-23T15:40:51;2.60;;;1.50;;
15635;SDS011;7917;50.818;6.972;2024-03-23T15:43:18;2.97;;;1.35;;
15635;SDS011;7917;50.818;6.972;2024-03-23T15:45:54;2.40;;;1.67;;
15635;SDS011;7917;50.818;6.972;2024-03-23T15:48:20;5.20;;;1.60;;
15635;SDS011;7917;50.818;6.972;2024-03-23T15:50:50;2.20;;;1.45;;
15635;SDS011;7917;50.818;6.972;2024-03-23T15:53:18;3.90;;;2.05;;
15635;SDS011;7917;50.818;6.972;2024-03-23T15:55:53;2.42;;;1.52;;
15635;SDS011;7917;50.818;6.972;2024-03-23T15:58:20;3.55;;;1.90;;
15635;SDS011;7917;50.818;6.972;2024-03-23T16:00:53;4.20;;;2.00;;